Time;durP1;ratioP1;P1;durP2;ratioP2;P2;SDS_P1;SDS_P2;PMS_P1;PMS_P2;Temp;Humidity;BMP_temperature;BMP_pressure;BME280_temperature;BME280_humidity;BME280_pressure;Samples;Min_cycle;Max_cycle;Signal;HPM_P1;HPM_P2
2023/11/08 00:01:57;;;;;;;2.13;1.92;;;;;;;;;;5039206;28;20032;-66
2023/11/08 00:04:23;;;;;;;4.88;1.77;;;;;;;;;;5008429;28;20040;-65
2023/11/08 00:06:49;;;;;;;4.40;1.70;;;;;;;;;;5036222;28;20036;-70
2023/11/08 00:09:15;;;;;;;2.40;1.65;;;;;;;;;;5016602;28;20022;-67
2023/11/08 00:11:42;;;;;;;4.97;2.42;;;;;;;;;;5033951;28;20033;-66
2023/11/08 00:14:10;;;;;;;5.03;2.33;;;;;;;;;;5039774;28;20021;-66
2023/11/08 00:16:39;;;;;;;2.85;1.70;;;;;;;;;;5031474;28;20108;-67
2023/11/08 00:19:08;;;;;;;3.88;2.00;;;;;;;;;;5035886;28;20033;-67
2023/11/08 00:21:35;;;;;;;2.10;1.70;;;;;;;;;;5029122;28;20036;-67
2023/11/08 00:24:02;;;;;;;4.22;1.95;;;;;;;;;;5027766;28;20454;-67
2023/11/08 00:26:29;;;;;;;4.75;2.00;;;;;;;;;;5021487;28;20074;-67
2023/11/08 00:28:55;;;;;;;2.08;1.67;;;;;;;;;;5032864;28;20712;-66
2023/11/08 00:31:22;;;;;;;3.35;2.05;;;;;;;;;;5031968;28;20020;-66
2023/11/08 00:33:49;;;;;;;3.40;2.00;;;;;;;;;;5030947;28;20495;-66
2023/11/08 00:36:15;;;;;;;4.93;1.83;;;;;;;;;;5040395;28;20494;-67
2023/11/08 00:38:41;;;;;;;2.35;1.90;;;;;;;;;;5037121;28;20168;-66
2023/11/08 00:41:07;;;;;;;2.50;2.00;;;;;;;;;;5041802;28;20060;-65
2023/11/08 00:43:34;;;;;;;5.82;2.40;;;;;;;;;;5035478;28;20040;-68
2023/11/08 00:46:02;;;;;;;3.30;1.77;;;;;;;;;;5024553;28;20398;-68
2023/11/08 00:48:28;;;;;;;5.38;1.98;;;;;;;;;;5043544;28;20044;-68
2023/11/08 00:50:55;;;;;;;4.80;2.95;;;;;;;;;;5026183;28;20147;-68
2023/11/08 00:53:25;;;;;;;2.92;2.00;;;;;;;;;;5036900;28;20441;-67
2023/11/08 00:55:51;;;;;;;3.60;1.80;;;;;;;;;;5020954;28;20498;-69
2023/11/08 00:58:17;;;;;;;2.08;1.45;;;;;;;;;;5042558;28;20343;-69
2023/11/08 01:00:44;;;;;;;3.03;1.77;;;;;;;;;;5039294;28;20036;-68
2023/11/08 01:03:12;;;;;;;5.05;2.72;;;;;;;;;;5038944;28;20044;-69
2023/11/08 01:05:39;;;;;;;1.38;1.30;;;;;;;;;;5029015;28;20052;-68
2023/11/08 01:08:05;;;;;;;2.67;1.75;;;;;;;;;;5042675;28;20044;-68
2023/11/08 01:10:32;;;;;;;3.15;1.60;;;;;;;;;;5033212;28;20104;-61
2023/11/08 01:12:58;;;;;;;2.75;1.83;;;;;;;;;;5038207;28;20122;-61
2023/11/08 01:15:24;;;;;;;4.45;1.98;;;;;;;;;;5033271;28;20026;-60
2023/11/08 01:17:50;;;;;;;5.97;2.03;;;;;;;;;;5041342;28;20110;-62
2023/11/08 01:20:16;;;;;;;1.50;1.40;;;;;;;;;;5030776;28;20029;-60
2023/11/08 01:22:43;;;;;;;1.85;1.60;;;;;;;;;;5039635;28;20576;-62
2023/11/08 01:25:12;;;;;;;1.35;1.35;;;;;;;;;;5039074;28;20112;-61
2023/11/08 01:27:38;;;;;;;2.78;1.63;;;;;;;;;;5024175;28;20498;-63
2023/11/08 01:30:04;;;;;;;4.13;1.55;;;;;;;;;;5020863;28;20452;-60
2023/11/08 01:32:33;;;;;;;3.28;2.72;;;;;;;;;;5022917;28;20054;-60
2023/11/08 01:35:01;;;;;;;2.17;1.48;;;;;;;;;;5020151;28;20068;-65
2023/11/08 01:37:27;;;;;;;1.80;1.70;;;;;;;;;;5033492;28;20196;-62
2023/11/08 01:39:53;;;;;;;2.60;1.40;;;;;;;;;;5024816;28;20086;-67
2023/11/08 01:42:19;;;;;;;2.20;2.10;;;;;;;;;;5044577;28;20033;-65
2023/11/08 01:44:46;;;;;;;1.23;1.13;;;;;;;;;;5018719;28;20030;-61
2023/11/08 01:47:14;;;;;;;1.50;1.40;;;;;;;;;;5031932;28;20033;-62
2023/11/08 01:49:40;;;;;;;1.20;1.20;;;;;;;;;;5021157;28;20079;-64
2023/11/08 01:52:06;;;;;;;1.23;1.23;;;;;;;;;;5036590;28;20047;-66
2023/11/08 01:54:33;;;;;;;2.08;1.40;;;;;;;;;;5015718;28;20037;-60
2023/11/08 01:57:00;;;;;;;1.40;1.30;;;;;;;;;;5039086;28;20041;-61
2023/11/08 01:59:26;;;;;;;1.30;1.30;;;;;;;;;;5046861;28;20445;-61
2023/11/08 02:01:57;;;;;;;1.10;1.10;;;;;;;;;;5021765;28;20033;-61
2023/11/08 02:04:23;;;;;;;1.70;1.60;;;;;;;;;;5039013;28;20041;-60
2023/11/08 02:06:49;;;;;;;2.58;1.65;;;;;;;;;;5031696;28;20025;-62
2023/11/08 02:09:16;;;;;;;1.85;1.30;;;;;;;;;;5022096;28;20079;-62
2023/11/08 02:11:44;;;;;;;2.50;1.52;;;;;;;;;;5016204;28;20032;-66
2023/11/08 02:14:10;;;;;;;1.38;1.30;;;;;;;;;;5034302;28;20410;-61
2023/11/08 02:16:37;;;;;;;1.42;1.20;;;;;;;;;;5021433;28;20056;-62
2023/11/08 02:19:05;;;;;;;1.50;1.50;;;;;;;;;;5035759;28;20029;-61
2023/11/08 02:21:31;;;;;;;1.25;1.15;;;;;;;;;;5036837;28;21696;-62
2023/11/08 02:23:58;;;;;;;1.10;1.10;;;;;;;;;;5036730;28;20094;-60
2023/11/08 02:26:24;;;;;;;1.70;1.52;;;;;;;;;;5041486;28;20028;-61
2023/11/08 02:28:50;;;;;;;3.35;1.40;;;;;;;;;;5020056;28;20502;-62
2023/11/08 02:31:20;;;;;;;2.30;1.40;;;;;;;;;;5042432;28;20021;-62
2023/11/08 02:33:46;;;;;;;1.85;1.20;;;;;;;;;;5043529;28;20056;-61
2023/11/08 02:36:14;;;;;;;1.20;1.20;;;;;;;;;;5042996;28;20372;-62
2023/11/08 02:38:40;;;;;;;1.40;1.30;;;;;;;;;;5035797;28;20526;-60
2023/11/08 02:41:06;;;;;;;1.20;1.20;;;;;;;;;;5037864;28;20032;-61
2023/11/08 02:43:32;;;;;;;1.73;1.63;;;;;;;;;;5041300;28;20036;-62
2023/11/08 02:45:58;;;;;;;1.10;1.10;;;;;;;;;;5039433;28;20124;-61
2023/11/08 02:48:24;;;;;;;1.20;1.20;;;;;;;;;;5033123;28;20099;-61
2023/11/08 02:50:56;;;;;;;1.42;1.42;;;;;;;;;;5029507;28;20026;-61
2023/11/08 02:53:23;;;;;;;1.40;1.27;;;;;;;;;;5029422;28;20216;-63
2023/11/08 02:55:49;;;;;;;1.00;1.00;;;;;;;;;;5015488;28;20494;-61
2023/11/08 02:58:15;;;;;;;1.00;1.00;;;;;;;;;;5039411;28;20554;-61
2023/11/08 03:00:41;;;;;;;1.15;1.13;;;;;;;;;;5020517;28;20056;-61
2023/11/08 03:03:08;;;;;;;1.33;1.23;;;;;;;;;;5038732;28;20052;-62
2023/11/08 03:05:34;;;;;;;1.88;1.20;;;;;;;;;;5032171;28;20029;-61
2023/11/08 03:08:00;;;;;;;1.20;1.20;;;;;;;;;;5031005;28;20064;-61
2023/11/08 03:10:26;;;;;;;1.05;1.05;;;;;;;;;;5037637;28;20025;-62
2023/11/08 03:12:53;;;;;;;1.10;1.10;;;;;;;;;;5039055;28;20351;-62
2023/11/08 03:15:23;;;;;;;1.10;1.10;;;;;;;;;;5033848;28;20043;-62
2023/11/08 03:17:50;;;;;;;1.00;1.00;;;;;;;;;;5031951;28;20025;-62
2023/11/08 03:20:17;;;;;;;1.00;1.00;;;;;;;;;;5032034;28;20954;-61
2023/11/08 03:22:43;;;;;;;1.05;1.05;;;;;;;;;;5032005;28;20033;-61
2023/11/08 03:25:13;;;;;;;1.13;1.13;;;;;;;;;;5034243;28;20240;-63
2023/11/08 03:27:43;;;;;;;1.10;1.10;;;;;;;;;;5019190;28;20338;-61
2023/11/08 03:30:13;;;;;;;1.33;1.27;;;;;;;;;;5036474;28;20047;-61
2023/11/08 03:32:40;;;;;;;1.40;1.40;;;;;;;;;;5041060;28;20924;-61
2023/11/08 03:35:07;;;;;;;1.00;1.00;;;;;;;;;;5034818;28;20028;-61
2023/11/08 03:37:40;;;;;;;1.20;1.20;;;;;;;;;;5027057;28;20025;-61
2023/11/08 03:40:11;;;;;;;0.95;0.95;;;;;;;;;;5033702;28;20104;-61
2023/11/08 03:42:37;;;;;;;1.15;1.08;;;;;;;;;;5030520;28;20029;-61
2023/11/08 03:45:05;;;;;;;1.10;1.10;;;;;;;;;;5035269;28;20552;-61
2023/11/08 03:47:31;;;;;;;1.00;1.00;;;;;;;;;;5044102;28;20241;-62
2023/11/08 03:49:58;;;;;;;1.10;1.10;;;;;;;;;;5024848;28;20029;-62
2023/11/08 03:52:24;;;;;;;1.33;1.00;;;;;;;;;;5035241;28;20029;-62
2023/11/08 03:54:53;;;;;;;0.90;0.90;;;;;;;;;;5032343;28;20383;-61
2023/11/08 03:57:20;;;;;;;1.10;1.10;;;;;;;;;;5029411;28;20380;-65
2023/11/08 03:59:46;;;;;;;1.00;1.00;;;;;;;;;;5017184;28;20033;-60
2023/11/08 04:02:12;;;;;;;1.20;1.20;;;;;;;;;;5037435;28;20390;-61
2023/11/08 04:04:39;;;;;;;1.00;1.00;;;;;;;;;;5025005;28;20032;-61
2023/11/08 04:07:05;;;;;;;2.03;1.00;;;;;;;;;;5034043;28;20032;-68
2023/11/08 04:09:31;;;;;;;0.90;0.90;;;;;;;;;;5031747;28;20037;-61
2023/11/08 04:11:57;;;;;;;1.10;1.10;;;;;;;;;;5036857;28;20029;-61
2023/11/08 04:14:24;;;;;;;1.10;1.10;;;;;;;;;;5015994;28;20542;-65
2023/11/08 04:16:51;;;;;;;1.10;1.10;;;;;;;;;;5036532;28;20017;-62
2023/11/08 04:19:19;;;;;;;1.08;1.08;;;;;;;;;;5036320;28;20025;-61
2023/11/08 04:21:45;;;;;;;1.20;1.20;;;;;;;;;;5032128;28;20026;-62
2023/11/08 04:24:11;;;;;;;1.20;1.20;;;;;;;;;;5015991;28;20037;-61
2023/11/08 04:26:37;;;;;;;1.15;1.15;;;;;;;;;;5031330;28;20033;-63
2023/11/08 04:29:04;;;;;;;1.48;1.38;;;;;;;;;;5036645;28;20056;-61
2023/11/08 04:31:30;;;;;;;2.70;1.40;;;;;;;;;;5033109;28;20037;-61
2023/11/08 04:33:56;;;;;;;1.10;1.10;;;;;;;;;;5034765;28;20526;-62
2023/11/08 04:36:22;;;;;;;1.30;1.20;;;;;;;;;;5036182;28;20473;-62
2023/11/08 04:38:51;;;;;;;1.10;1.10;;;;;;;;;;5038626;28;20094;-64
2023/11/08 04:41:19;;;;;;;1.15;1.15;;;;;;;;;;5040473;28;20533;-62
2023/11/08 04:43:48;;;;;;;1.20;1.20;;;;;;;;;;5041019;28;20021;-65
2023/11/08 04:46:16;;;;;;;1.20;1.20;;;;;;;;;;5024412;28;20539;-65
2023/11/08 04:48:43;;;;;;;2.75;1.23;;;;;;;;;;5043181;28;20041;-61
2023/11/08 04:51:09;;;;;;;1.35;1.30;;;;;;;;;;5047019;28;20609;-61
2023/11/08 04:53:35;;;;;;;1.23;1.23;;;;;;;;;;5034698;28;20036;-62
2023/11/08 04:56:02;;;;;;;2.92;1.60;;;;;;;;;;5022897;28;20045;-62
2023/11/08 04:58:28;;;;;;;3.45;1.70;;;;;;;;;;5033893;28;20041;-62
2023/11/08 05:00:54;;;;;;;2.88;2.00;;;;;;;;;;5039165;28;20048;-62
2023/11/08 05:03:20;;;;;;;6.28;2.28;;;;;;;;;;5040393;28;20045;-62
2023/11/08 05:05:46;;;;;;;2.47;1.80;;;;;;;;;;5015498;28;20084;-62
2023/11/08 05:08:12;;;;;;;5.47;1.90;;;;;;;;;;5036700;28;20025;-61
2023/11/08 05:10:39;;;;;;;2.58;1.80;;;;;;;;;;5033459;28;20036;-61
2023/11/08 05:13:05;;;;;;;2.33;1.60;;;;;;;;;;5044966;28;20029;-61
2023/11/08 05:15:32;;;;;;;4.40;2.20;;;;;;;;;;5021726;28;20402;-64
2023/11/08 05:17:58;;;;;;;4.20;1.95;;;;;;;;;;5033898;28;20029;-62
2023/11/08 05:20:25;;;;;;;5.82;2.33;;;;;;;;;;5022966;28;20044;-62
2023/11/08 05:22:54;;;;;;;5.13;2.15;;;;;;;;;;5028031;28;20068;-61
2023/11/08 05:25:20;;;;;;;5.18;2.28;;;;;;;;;;5013093;28;20994;-61
2023/11/08 05:27:46;;;;;;;7.45;2.17;;;;;;;;;;5034179;28;20025;-61
2023/11/08 05:30:15;;;;;;;6.57;2.17;;;;;;;;;;5038309;28;20025;-60
2023/11/08 05:32:42;;;;;;;9.90;2.28;;;;;;;;;;5038035;28;20040;-62
2023/11/08 05:35:08;;;;;;;8.02;2.58;;;;;;;;;;5032985;28;20076;-61
2023/11/08 05:37:34;;;;;;;8.73;2.20;;;;;;;;;;5032877;28;20615;-61
2023/11/08 05:40:00;;;;;;;6.55;2.38;;;;;;;;;;5039864;28;20390;-61
2023/11/08 05:42:27;;;;;;;5.93;2.25;;;;;;;;;;5034876;28;20029;-62
2023/11/08 05:44:56;;;;;;;5.05;2.10;;;;;;;;;;5035808;28;20045;-62
2023/11/08 05:47:23;;;;;;;8.68;2.10;;;;;;;;;;5037932;28;20473;-62
2023/11/08 05:49:49;;;;;;;2.92;2.03;;;;;;;;;;5035857;28;20037;-62
2023/11/08 05:52:17;;;;;;;5.85;2.05;;;;;;;;;;5031100;28;20425;-61
2023/11/08 05:54:43;;;;;;;5.07;2.20;;;;;;;;;;5041044;28;20029;-61
2023/11/08 05:57:09;;;;;;;8.60;2.95;;;;;;;;;;5019663;28;20445;-62
2023/11/08 05:59:38;;;;;;;10.07;3.00;;;;;;;;;;5043488;28;20037;-60
2023/11/08 06:02:04;;;;;;;6.40;2.50;;;;;;;;;;5035658;28;20044;-61
2023/11/08 06:04:31;;;;;;;6.43;2.33;;;;;;;;;;5023971;28;20028;-62
2023/11/08 06:06:58;;;;;;;7.40;2.08;;;;;;;;;;5037355;28;20060;-61
2023/11/08 06:09:24;;;;;;;5.72;2.10;;;;;;;;;;5021465;28;20106;-61
2023/11/08 06:11:50;;;;;;;6.20;2.22;;;;;;;;;;5033303;28;20089;-60
2023/11/08 06:14:16;;;;;;;4.28;2.13;;;;;;;;;;5045808;28;20036;-62
2023/11/08 06:16:42;;;;;;;6.43;2.10;;;;;;;;;;5035001;28;20479;-62
2023/11/08 06:19:09;;;;;;;4.22;2.20;;;;;;;;;;5034310;28;20162;-63
2023/11/08 06:21:35;;;;;;;11.88;2.42;;;;;;;;;;5034461;28;20450;-62
2023/11/08 06:24:01;;;;;;;3.63;1.77;;;;;;;;;;5034579;28;20417;-62
2023/11/08 06:26:27;;;;;;;4.43;2.20;;;;;;;;;;5024822;28;20090;-62
2023/11/08 06:28:54;;;;;;;3.45;1.58;;;;;;;;;;5037706;28;20041;-61
2023/11/08 06:31:21;;;;;;;5.47;1.75;;;;;;;;;;5032142;28;20458;-61
2023/11/08 06:33:50;;;;;;;10.38;3.03;;;;;;;;;;5035972;28;20040;-62
2023/11/08 06:36:16;;;;;;;7.25;2.10;;;;;;;;;;5029736;28;20040;-63
2023/11/08 06:38:42;;;;;;;6.40;2.00;;;;;;;;;;5033018;28;20090;-60
2023/11/08 06:41:09;;;;;;;4.45;2.53;;;;;;;;;;5041625;28;20452;-60
2023/11/08 06:43:35;;;;;;;3.67;2.53;;;;;;;;;;5025906;28;20036;-66
2023/11/08 06:46:02;;;;;;;5.15;2.13;;;;;;;;;;5040287;28;20013;-60
2023/11/08 06:48:28;;;;;;;6.38;2.05;;;;;;;;;;5019188;28;20028;-61
2023/11/08 06:50:54;;;;;;;8.15;2.17;;;;;;;;;;5014832;28;20037;-60
2023/11/08 06:53:20;;;;;;;9.57;2.38;;;;;;;;;;5032581;28;21142;-60
2023/11/08 06:55:46;;;;;;;8.02;3.05;;;;;;;;;;5033599;28;20029;-60
2023/11/08 06:58:13;;;;;;;7.85;1.85;;;;;;;;;;5038458;28;20660;-60
2023/11/08 07:00:39;;;;;;;6.50;2.40;;;;;;;;;;5023117;28;20032;-61
2023/11/08 07:03:06;;;;;;;8.82;3.13;;;;;;;;;;5035723;28;20052;-61
2023/11/08 07:05:32;;;;;;;7.72;2.45;;;;;;;;;;5028314;28;20033;-62
2023/11/08 07:07:58;;;;;;;8.60;2.30;;;;;;;;;;5033499;28;20039;-65
2023/11/08 07:10:25;;;;;;;10.23;2.67;;;;;;;;;;5025518;28;20476;-61
2023/11/08 07:12:53;;;;;;;5.18;1.80;;;;;;;;;;5030406;28;20040;-69
2023/11/08 07:15:19;;;;;;;7.38;2.30;;;;;;;;;;5036274;28;20032;-70
2023/11/08 07:17:45;;;;;;;12.43;2.72;;;;;;;;;;5033416;28;20361;-70
2023/11/08 07:20:11;;;;;;;7.20;2.17;;;;;;;;;;5035168;28;20062;-70
2023/11/08 07:22:37;;;;;;;3.60;1.95;;;;;;;;;;5038239;28;20567;-70
2023/11/08 07:25:04;;;;;;;6.65;2.10;;;;;;;;;;5036902;28;20033;-72
2023/11/08 07:27:30;;;;;;;8.85;2.10;;;;;;;;;;5027104;28;20036;-69
2023/11/08 07:29:56;;;;;;;7.95;2.00;;;;;;;;;;5039150;28;20380;-70
2023/11/08 07:32:23;;;;;;;9.68;2.80;;;;;;;;;;5036700;28;20029;-70
2023/11/08 07:34:49;;;;;;;6.20;2.17;;;;;;;;;;5032634;28;20794;-71
2023/11/08 07:37:15;;;;;;;3.63;1.63;;;;;;;;;;5025052;28;20039;-69
2023/11/08 07:39:41;;;;;;;4.93;1.80;;;;;;;;;;5035766;28;20035;-69
2023/11/08 07:42:09;;;;;;;8.88;2.30;;;;;;;;;;5033429;28;20043;-69
2023/11/08 07:44:35;;;;;;;3.67;2.45;;;;;;;;;;5029574;28;20037;-70
2023/11/08 07:47:01;;;;;;;7.43;2.30;;;;;;;;;;5039530;28;20435;-69
2023/11/08 07:49:28;;;;;;;6.05;1.88;;;;;;;;;;5048749;28;20021;-69
2023/11/08 07:51:54;;;;;;;4.13;1.73;;;;;;;;;;5039952;28;20193;-70
2023/11/08 07:54:20;;;;;;;9.02;2.67;;;;;;;;;;5022403;28;20460;-70
2023/11/08 07:56:46;;;;;;;5.30;1.63;;;;;;;;;;5044051;28;20028;-69
2023/11/08 07:59:14;;;;;;;5.10;2.33;;;;;;;;;;5035021;28;20569;-70
2023/11/08 08:01:40;;;;;;;10.32;2.70;;;;;;;;;;5035124;28;20036;-69
2023/11/08 08:04:06;;;;;;;10.20;2.97;;;;;;;;;;5044431;28;20040;-69
2023/11/08 08:06:32;;;;;;;5.82;2.40;;;;;;;;;;5042633;28;20021;-70
2023/11/08 08:08:59;;;;;;;5.70;2.33;;;;;;;;;;5041759;28;20032;-69
2023/11/08 08:11:25;;;;;;;6.65;3.35;;;;;;;;;;5040062;28;20025;-70
2023/11/08 08:13:52;;;;;;;7.30;2.63;;;;;;;;;;5044266;28;20112;-70
2023/11/08 08:16:19;;;;;;;8.23;2.45;;;;;;;;;;5040171;28;20036;-70
2023/11/08 08:18:47;;;;;;;8.98;2.35;;;;;;;;;;5023732;28;20029;-70
2023/11/08 08:21:13;;;;;;;8.20;2.63;;;;;;;;;;5031980;28;20309;-70
2023/11/08 08:23:39;;;;;;;9.73;2.58;;;;;;;;;;5041674;28;20096;-70
2023/11/08 08:26:05;;;;;;;13.52;2.78;;;;;;;;;;5028865;28;20029;-70
2023/11/08 08:28:38;;;;;;;7.75;2.50;;;;;;;;;;5039728;28;20511;-70
2023/11/08 08:31:05;;;;;;;8.80;2.47;;;;;;;;;;5044693;28;20025;-70
2023/11/08 08:33:34;;;;;;;7.47;3.22;;;;;;;;;;5036523;28;20037;-70
2023/11/08 08:36:00;;;;;;;9.23;3.40;;;;;;;;;;5037734;28;20692;-69
2023/11/08 08:38:26;;;;;;;12.30;2.95;;;;;;;;;;5046065;28;20025;-70
2023/11/08 08:40:52;;;;;;;9.10;2.88;;;;;;;;;;5017513;28;20361;-69
2023/11/08 08:43:20;;;;;;;10.32;3.00;;;;;;;;;;5056303;28;20414;-69
2023/11/08 08:45:47;;;;;;;7.13;2.70;;;;;;;;;;5044993;28;20155;-70
2023/11/08 08:48:13;;;;;;;8.43;2.72;;;;;;;;;;5036421;28;20033;-70
2023/11/08 08:50:39;;;;;;;10.95;2.95;;;;;;;;;;5037957;28;20071;-70
2023/11/08 08:53:05;;;;;;;11.30;3.05;;;;;;;;;;5022823;28;20037;-73
2023/11/08 08:55:31;;;;;;;12.25;3.55;;;;;;;;;;5036708;28;20122;-71
2023/11/08 08:57:58;;;;;;;14.90;3.53;;;;;;;;;;5032370;28;20033;-71
2023/11/08 09:00:24;;;;;;;9.60;3.08;;;;;;;;;;5033133;28;20208;-70
2023/11/08 09:02:50;;;;;;;15.40;3.40;;;;;;;;;;5035446;28;20053;-70
2023/11/08 09:05:23;;;;;;;10.30;3.22;;;;;;;;;;5035057;28;20567;-70
2023/11/08 09:07:50;;;;;;;9.15;3.00;;;;;;;;;;5043333;28;20493;-71
2023/11/08 09:10:16;;;;;;;14.43;3.00;;;;;;;;;;5038337;28;20501;-70
2023/11/08 09:12:43;;;;;;;8.93;3.25;;;;;;;;;;5034844;28;20615;-70
2023/11/08 09:15:10;;;;;;;13.77;4.47;;;;;;;;;;5031188;28;20037;-70
2023/11/08 09:17:37;;;;;;;10.23;2.90;;;;;;;;;;5032968;28;20079;-70
2023/11/08 09:20:07;;;;;;;11.55;2.60;;;;;;;;;;5040868;28;20025;-70
2023/11/08 09:22:33;;;;;;;11.38;3.22;;;;;;;;;;5021440;28;20029;-70
2023/11/08 09:24:59;;;;;;;14.00;3.55;;;;;;;;;;5022874;28;20143;-69
2023/11/08 09:27:26;;;;;;;9.25;3.28;;;;;;;;;;5028688;28;20029;-69
2023/11/08 09:29:52;;;;;;;9.77;2.83;;;;;;;;;;5016453;28;20036;-70
2023/11/08 09:32:18;;;;;;;7.70;3.17;;;;;;;;;;5022580;28;20688;-70
2023/11/08 09:34:44;;;;;;;11.23;3.13;;;;;;;;;;5036210;28;20403;-69
2023/11/08 09:37:13;;;;;;;11.43;3.58;;;;;;;;;;5037808;28;20060;-69
2023/11/08 09:39:39;;;;;;;12.82;2.90;;;;;;;;;;5040264;28;20024;-70
2023/11/08 09:42:06;;;;;;;9.60;3.20;;;;;;;;;;5028240;28;20502;-69
2023/11/08 09:44:32;;;;;;;15.05;4.25;;;;;;;;;;5040431;28;20021;-70
2023/11/08 09:46:58;;;;;;;12.55;3.25;;;;;;;;;;5036373;28;20037;-70
2023/11/08 09:49:25;;;;;;;11.57;3.78;;;;;;;;;;5039138;28;20037;-69
2023/11/08 09:51:54;;;;;;;6.40;2.72;;;;;;;;;;5028840;28;20109;-70
2023/11/08 09:54:20;;;;;;;12.35;3.35;;;;;;;;;;5039458;28;20140;-69
2023/11/08 09:56:46;;;;;;;13.85;3.55;;;;;;;;;;5030026;28;20039;-70
2023/11/08 09:59:15;;;;;;;10.30;2.88;;;;;;;;;;5031015;28;20479;-70
2023/11/08 10:01:44;;;;;;;12.10;3.75;;;;;;;;;;5033751;28;20041;-69
2023/11/08 10:04:11;;;;;;;6.90;2.75;;;;;;;;;;5036922;28;20825;-69
2023/11/08 10:06:39;;;;;;;12.18;3.83;;;;;;;;;;5036271;28;20148;-69
2023/11/08 10:09:06;;;;;;;10.15;3.03;;;;;;;;;;5040343;28;20078;-69
2023/11/08 10:11:34;;;;;;;11.02;3.05;;;;;;;;;;5043455;28;20664;-69
2023/11/08 10:14:00;;;;;;;7.10;3.10;;;;;;;;;;5036677;28;20597;-69
2023/11/08 10:16:27;;;;;;;12.68;4.00;;;;;;;;;;5019073;28;20037;-70
2023/11/08 10:18:57;;;;;;;18.63;3.75;;;;;;;;;;5037939;28;20032;-70
2023/11/08 10:21:25;;;;;;;12.00;3.65;;;;;;;;;;5035623;28;20049;-71
2023/11/08 10:23:54;;;;;;;11.77;3.08;;;;;;;;;;5034120;28;20029;-70
2023/11/08 10:26:26;;;;;;;11.65;3.30;;;;;;;;;;5039667;28;20025;-70
2023/11/08 10:29:01;;;;;;;15.88;3.30;;;;;;;;;;5043398;28;20442;-70
2023/11/08 10:31:38;;;;;;;11.82;3.03;;;;;;;;;;5021357;28;20475;-70
2023/11/08 10:34:06;;;;;;;6.75;2.92;;;;;;;;;;5034371;28;20450;-70
2023/11/08 10:36:32;;;;;;;10.77;3.45;;;;;;;;;;5039121;28;20025;-71
2023/11/08 10:38:58;;;;;;;6.05;3.35;;;;;;;;;;5035140;28;20036;-71
2023/11/08 10:41:25;;;;;;;8.40;3.58;;;;;;;;;;5047776;28;20032;-70
2023/11/08 10:44:07;;;;;;;10.65;3.75;;;;;;;;;;5036592;28;20039;-71
2023/11/08 10:46:33;;;;;;;12.43;3.03;;;;;;;;;;5044670;28;20033;-70
2023/11/08 10:49:00;;;;;;;13.23;3.53;;;;;;;;;;5039649;28;20036;-70
2023/11/08 10:51:27;;;;;;;9.73;2.60;;;;;;;;;;5040528;28;20123;-70
2023/11/08 10:53:56;;;;;;;7.03;3.42;;;;;;;;;;5033260;28;20057;-71
2023/11/08 10:56:23;;;;;;;15.10;3.78;;;;;;;;;;5019906;28;20170;-71
2023/11/08 10:58:50;;;;;;;16.00;3.78;;;;;;;;;;5041602;28;20021;-75
2023/11/08 11:01:18;;;;;;;11.73;3.25;;;;;;;;;;5035831;28;20029;-73
2023/11/08 11:03:48;;;;;;;9.07;3.20;;;;;;;;;;5023115;28;20034;-71
2023/11/08 11:06:14;;;;;;;9.35;3.10;;;;;;;;;;5008572;28;20038;-72
2023/11/08 11:08:43;;;;;;;13.18;3.65;;;;;;;;;;5016940;28;20176;-70
2023/11/08 11:11:09;;;;;;;14.60;4.18;;;;;;;;;;5012598;28;20256;-71
2023/11/08 11:13:39;;;;;;;12.60;3.15;;;;;;;;;;5017520;28;20037;-71
2023/11/08 11:16:16;;;;;;;12.77;3.53;;;;;;;;;;5014585;28;20524;-70
2023/11/08 11:18:46;;;;;;;7.40;3.28;;;;;;;;;;5014559;28;20427;-71
2023/11/08 11:21:19;;;;;;;10.60;4.10;;;;;;;;;;5011388;28;20034;-68
2023/11/08 11:23:45;;;;;;;12.68;4.18;;;;;;;;;;5022551;28;20414;-70
2023/11/08 11:26:12;;;;;;;10.15;3.03;;;;;;;;;;5017495;28;20025;-70
2023/11/08 11:28:55;;;;;;;9.65;3.13;;;;;;;;;;5011359;28;20112;-70
2023/11/08 11:31:34;;;;;;;11.00;3.00;;;;;;;;;;5013218;28;20064;-72
2023/11/08 11:34:01;;;;;;;6.85;2.75;;;;;;;;;;5013838;28;20509;-71
2023/11/08 11:36:27;;;;;;;9.68;3.03;;;;;;;;;;5007905;28;20038;-71
2023/11/08 11:39:12;;;;;;;8.68;3.17;;;;;;;;;;5029523;28;20091;-71
2023/11/08 11:41:38;;;;;;;13.75;3.75;;;;;;;;;;5018174;28;20547;-71
2023/11/08 11:44:10;;;;;;;8.93;3.45;;;;;;;;;;5012687;28;20525;-77
2023/11/08 11:46:36;;;;;;;10.80;3.58;;;;;;;;;;5020237;28;20407;-71
2023/11/08 11:49:08;;;;;;;12.43;4.38;;;;;;;;;;5018691;28;20022;-70
2023/11/08 11:51:35;;;;;;;9.35;2.83;;;;;;;;;;5022557;28;20026;-70
2023/11/08 11:54:01;;;;;;;15.95;3.63;;;;;;;;;;5004996;28;20599;-70
2023/11/08 11:56:28;;;;;;;6.25;2.50;;;;;;;;;;5017683;28;20030;-71
2023/11/08 11:58:54;;;;;;;7.78;3.08;;;;;;;;;;5022686;28;20468;-71
2023/11/08 12:01:22;;;;;;;8.70;3.20;;;;;;;;;;5023765;28;20022;-71
2023/11/08 12:03:48;;;;;;;7.93;3.33;;;;;;;;;;5037059;28;20045;-71
2023/11/08 12:06:15;;;;;;;7.93;3.05;;;;;;;;;;5041524;28;20108;-71
2023/11/08 12:08:41;;;;;;;5.68;2.72;;;;;;;;;;5037963;28;20030;-71
2023/11/08 12:11:14;;;;;;;8.30;2.45;;;;;;;;;;5042716;28;20025;-71
2023/11/08 12:13:47;;;;;;;8.63;2.92;;;;;;;;;;5030213;28;20033;-71
2023/11/08 12:16:13;;;;;;;10.50;3.03;;;;;;;;;;5035504;28;20037;-70
2023/11/08 12:18:40;;;;;;;12.70;3.38;;;;;;;;;;5037190;28;20025;-70
2023/11/08 12:21:09;;;;;;;8.80;2.67;;;;;;;;;;5032216;28;20466;-70
2023/11/08 12:23:36;;;;;;;7.57;2.80;;;;;;;;;;5035190;28;20441;-71
2023/11/08 12:26:02;;;;;;;9.65;3.20;;;;;;;;;;5039340;28;20283;-72
2023/11/08 12:28:29;;;;;;;6.97;2.53;;;;;;;;;;5035277;28;20025;-70
2023/11/08 12:31:08;;;;;;;9.65;3.25;;;;;;;;;;5029250;28;20026;-71
2023/11/08 12:33:34;;;;;;;7.22;3.42;;;;;;;;;;5043996;28;20491;-70
2023/11/08 12:36:02;;;;;;;7.45;3.40;;;;;;;;;;5038604;28;20065;-70
2023/11/08 12:38:28;;;;;;;9.30;2.50;;;;;;;;;;5036307;28;20391;-71
2023/11/08 12:41:04;;;;;;;6.90;2.55;;;;;;;;;;5038977;28;20112;-71
2023/11/08 12:43:31;;;;;;;9.32;2.92;;;;;;;;;;5032214;28;20033;-70
2023/11/08 12:46:00;;;;;;;9.02;3.10;;;;;;;;;;5038157;28;20100;-69
2023/11/08 12:48:29;;;;;;;10.82;3.30;;;;;;;;;;5032491;28;20475;-70
2023/11/08 12:50:59;;;;;;;11.77;2.95;;;;;;;;;;5046567;28;20375;-71
2023/11/08 12:53:25;;;;;;;12.73;2.90;;;;;;;;;;5033142;28;20056;-70
2023/11/08 12:55:58;;;;;;;6.35;2.55;;;;;;;;;;5039288;28;20029;-70
2023/11/08 12:58:26;;;;;;;11.57;2.97;;;;;;;;;;5038794;28;20142;-70
2023/11/08 13:00:52;;;;;;;6.75;2.67;;;;;;;;;;5043457;28;20037;-69
2023/11/08 13:03:25;;;;;;;11.20;3.30;;;;;;;;;;5017147;28;20046;-70
2023/11/08 13:05:53;;;;;;;8.50;2.83;;;;;;;;;;5017130;28;20190;-70
2023/11/08 13:08:20;;;;;;;8.23;3.70;;;;;;;;;;5016554;28;20026;-70
2023/11/08 13:10:47;;;;;;;8.93;3.08;;;;;;;;;;5005426;28;20033;-70
2023/11/08 13:13:14;;;;;;;9.00;2.60;;;;;;;;;;5019692;28;20112;-71
2023/11/08 13:15:40;;;;;;;8.95;3.15;;;;;;;;;;5028630;28;20058;-71
2023/11/08 13:18:07;;;;;;;10.77;2.60;;;;;;;;;;5021314;28;20037;-71
2023/11/08 13:20:37;;;;;;;7.22;3.30;;;;;;;;;;5013628;28;20053;-71
2023/11/08 13:23:05;;;;;;;9.68;3.25;;;;;;;;;;5013869;28;20619;-72
2023/11/08 13:25:31;;;;;;;8.80;3.13;;;;;;;;;;5019045;28;20026;-71
2023/11/08 13:27:57;;;;;;;8.32;2.83;;;;;;;;;;5020307;28;20478;-72
2023/11/08 13:30:23;;;;;;;3.60;2.40;;;;;;;;;;5014815;28;20022;-70
2023/11/08 13:32:52;;;;;;;10.27;2.80;;;;;;;;;;5020382;28;20025;-70
2023/11/08 13:35:19;;;;;;;9.57;3.78;;;;;;;;;;5014928;28;20029;-71
2023/11/08 13:37:45;;;;;;;8.82;3.45;;;;;;;;;;5016863;28;20026;-69
2023/11/08 13:40:12;;;;;;;11.25;3.70;;;;;;;;;;5026272;28;20037;-71
2023/11/08 13:42:38;;;;;;;6.53;3.00;;;;;;;;;;5016895;28;20033;-70
2023/11/08 13:45:05;;;;;;;10.95;3.28;;;;;;;;;;5008918;28;20555;-69
2023/11/08 13:47:31;;;;;;;5.18;2.60;;;;;;;;;;5010362;28;20438;-70
2023/11/08 13:49:57;;;;;;;8.27;3.90;;;;;;;;;;5008498;28;20022;-70
2023/11/08 13:52:23;;;;;;;8.32;3.38;;;;;;;;;;5023780;28;20652;-69
2023/11/08 13:54:49;;;;;;;8.20;2.63;;;;;;;;;;5012786;28;20410;-70
2023/11/08 13:57:16;;;;;;;11.32;3.65;;;;;;;;;;5012048;28;20021;-69
2023/11/08 13:59:42;;;;;;;12.05;2.45;;;;;;;;;;5020411;28;20442;-69
2023/11/08 14:02:11;;;;;;;9.18;4.38;;;;;;;;;;5009772;28;20096;-69
2023/11/08 14:04:37;;;;;;;9.82;4.60;;;;;;;;;;5033563;28;20363;-68
2023/11/08 14:07:03;;;;;;;6.05;3.38;;;;;;;;;;5042350;28;20060;-69
2023/11/08 14:09:29;;;;;;;8.95;3.17;;;;;;;;;;5038816;28;20020;-70
2023/11/08 14:11:55;;;;;;;10.93;3.35;;;;;;;;;;5037441;28;20032;-69
2023/11/08 14:14:21;;;;;;;7.22;2.65;;;;;;;;;;5039094;28;20025;-69
2023/11/08 14:16:48;;;;;;;7.97;3.03;;;;;;;;;;5043785;28;20039;-69
2023/11/08 14:19:14;;;;;;;10.45;3.17;;;;;;;;;;5033496;28;20116;-69
2023/11/08 14:21:41;;;;;;;10.43;2.88;;;;;;;;;;5033308;28;20024;-69
2023/11/08 14:24:07;;;;;;;12.38;2.65;;;;;;;;;;5035820;28;20502;-70
2023/11/08 14:26:33;;;;;;;13.27;3.55;;;;;;;;;;5015043;28;20080;-70
2023/11/08 14:28:59;;;;;;;9.40;4.07;;;;;;;;;;5033580;28;20989;-70
2023/11/08 14:31:25;;;;;;;36.85;13.82;;;;;;;;;;5038127;28;20032;-72
2023/11/08 14:33:51;;;;;;;26.10;11.82;;;;;;;;;;5041220;28;20025;-70
2023/11/08 14:36:17;;;;;;;16.17;5.22;;;;;;;;;;5034988;28;20098;-69
2023/11/08 14:38:44;;;;;;;9.15;5.38;;;;;;;;;;5032216;28;20055;-72
2023/11/08 14:41:10;;;;;;;14.00;7.07;;;;;;;;;;5022518;28;20081;-70